sensor_id;sensor_type;location;lat;lon;timestamp;temperature;humidity
52575;DHT22;38468;48.114;-1.684;2024-02-04T00:00:10;11.50;78.40
52575;DHT22;38468;48.114;-1.684;2024-02-04T00:02:13;11.50;78.40
52575;DHT22;38468;48.114;-1.684;2024-02-04T00:04:14;11.60;78.40
52575;DHT22;38468;48.114;-1.684;2024-02-04T00:06:15;11.60;78.40
52575;DHT22;38468;48.114;-1.684;2024-02-04T00:08:15;11.60;78.40
52575;DHT22;38468;48.114;-1.684;2024-02-04T00:10:17;11.60;78.40
52575;DHT22;38468;48.114;-1.684;2024-02-04T00:12:18;11.60;78.40
52575;DHT22;38468;48.114;-1.684;2024-02-04T00:14:19;11.60;78.40
52575;DHT22;38468;48.114;-1.684;2024-02-04T00:16:20;11.60;78.40
52575;DHT22;38468;48.114;-1.684;2024-02-04T00:18:20;11.70;78.40
52575;DHT22;38468;48.114;-1.684;2024-02-04T00:20:21;11.70;78.40
52575;DHT22;38468;48.114;-1.684;2024-02-04T00:22:22;11.70;78.40
52575;DHT22;38468;48.114;-1.684;2024-02-04T00:24:23;11.70;78.40
52575;DHT22;38468;48.114;-1.684;2024-02-04T00:26:24;11.70;78.40
52575;DHT22;38468;48.114;-1.684;2024-02-04T00:28:24;11.80;78.40
52575;DHT22;38468;48.114;-1.684;2024-02-04T00:30:26;11.70;78.30
52575;DHT22;38468;48.114;-1.684;2024-02-04T00:32:27;11.70;78.30
52575;DHT22;38468;48.114;-1.684;2024-02-04T00:34:27;11.70;78.30
52575;DHT22;38468;48.114;-1.684;2024-02-04T00:36:28;11.80;78.30
52575;DHT22;38468;48.114;-1.684;2024-02-04T00:38:28;11.70;78.30
52575;DHT22;38468;48.114;-1.684;2024-02-04T00:40:30;11.70;78.20
52575;DHT22;38468;48.114;-1.684;2024-02-04T00:42:30;11.70;78.20
52575;DHT22;38468;48.114;-1.684;2024-02-04T00:44:31;11.70;78.20
52575;DHT22;38468;48.114;-1.684;2024-02-04T00:46:31;11.70;78.20
52575;DHT22;38468;48.114;-1.684;2024-02-04T00:48:32;11.70;78.20
52575;DHT22;38468;48.114;-1.684;2024-02-04T00:50:38;11.70;78.20
52575;DHT22;38468;48.114;-1.684;2024-02-04T00:52:39;11.70;78.20
52575;DHT22;38468;48.114;-1.684;2024-02-04T00:54:40;11.70;78.20
52575;DHT22;38468;48.114;-1.684;2024-02-04T00:56:40;11.70;78.20
52575;DHT22;38468;48.114;-1.684;2024-02-04T00:58:41;11.70;78.10
52575;DHT22;38468;48.114;-1.684;2024-02-04T01:00:41;11.70;78.00
52575;DHT22;38468;48.114;-1.684;2024-02-04T01:02:42;11.70;78.10
52575;DHT22;38468;48.114;-1.684;2024-02-04T01:04:43;11.70;78.10
52575;DHT22;38468;48.114;-1.684;2024-02-04T01:06:44;11.60;78.10
52575;DHT22;38468;48.114;-1.684;2024-02-04T01:08:45;11.60;78.20
52575;DHT22;38468;48.114;-1.684;2024-02-04T01:10:46;11.70;78.20
52575;DHT22;38468;48.114;-1.684;2024-02-04T01:12:47;11.70;78.20
52575;DHT22;38468;48.114;-1.684;2024-02-04T01:14:48;11.70;78.20
52575;DHT22;38468;48.114;-1.684;2024-02-04T01:16:48;11.60;78.20
52575;DHT22;38468;48.114;-1.684;2024-02-04T01:18:49;11.70;78.20
52575;DHT22;38468;48.114;-1.684;2024-02-04T01:20:50;11.70;78.10
52575;DHT22;38468;48.114;-1.684;2024-02-04T01:22:50;11.70;78.10
52575;DHT22;38468;48.114;-1.684;2024-02-04T01:24:51;11.60;78.00
52575;DHT22;38468;48.114;-1.684;2024-02-04T01:26:52;11.70;78.00
52575;DHT22;38468;48.114;-1.684;2024-02-04T01:28:52;11.70;78.10
52575;DHT22;38468;48.114;-1.684;2024-02-04T01:30:53;11.70;78.00
52575;DHT22;38468;48.114;-1.684;2024-02-04T01:32:54;11.60;78.00
52575;DHT22;38468;48.114;-1.684;2024-02-04T01:34:54;11.60;78.00
52575;DHT22;38468;48.114;-1.684;2024-02-04T01:36:55;11.60;78.00
52575;DHT22;38468;48.114;-1.684;2024-02-04T01:38:56;11.60;78.00
52575;DHT22;38468;48.114;-1.684;2024-02-04T01:40:56;11.60;78.00
52575;DHT22;38468;48.114;-1.684;2024-02-04T01:42:58;11.50;77.90
52575;DHT22;38468;48.114;-1.684;2024-02-04T01:44:58;11.50;77.90
52575;DHT22;38468;48.114;-1.684;2024-02-04T01:46:59;11.50;77.90
52575;DHT22;38468;48.114;-1.684;2024-02-04T01:49:00;11.40;77.90
52575;DHT22;38468;48.114;-1.684;2024-02-04T01:51:01;11.40;77.90
52575;DHT22;38468;48.114;-1.684;2024-02-04T01:53:02;11.40;78.00
52575;DHT22;38468;48.114;-1.684;2024-02-04T01:55:05;11.40;78.00
52575;DHT22;38468;48.114;-1.684;2024-02-04T01:57:06;11.40;78.00
52575;DHT22;38468;48.114;-1.684;2024-02-04T01:59:06;11.40;78.10
52575;DHT22;38468;48.114;-1.684;2024-02-04T02:01:07;11.50;78.10
52575;DHT22;38468;48.114;-1.684;2024-02-04T02:03:11;11.40;78.10
52575;DHT22;38468;48.114;-1.684;2024-02-04T02:05:12;11.40;78.10
52575;DHT22;38468;48.114;-1.684;2024-02-04T02:07:13;11.40;78.10
52575;DHT22;38468;48.114;-1.684;2024-02-04T02:09:16;11.40;78.10
52575;DHT22;38468;48.114;-1.684;2024-02-04T02:11:41;11.40;78.10
52575;DHT22;38468;48.114;-1.684;2024-02-04T02:13:44;11.40;78.10
52575;DHT22;38468;48.114;-1.684;2024-02-04T02:15:51;11.40;78.20
52575;DHT22;38468;48.114;-1.684;2024-02-04T02:18:01;11.40;78.20
52575;DHT22;38468;48.114;-1.684;2024-02-04T02:20:05;11.40;78.20
52575;DHT22;38468;48.114;-1.684;2024-02-04T02:22:29;11.40;78.20
52575;DHT22;38468;48.114;-1.684;2024-02-04T02:24:38;11.40;78.20
52575;DHT22;38468;48.114;-1.684;2024-02-04T02:26:42;11.40;78.20
52575;DHT22;38468;48.114;-1.684;2024-02-04T02:28:44;11.40;78.20
52575;DHT22;38468;48.114;-1.684;2024-02-04T02:30:44;11.40;78.30
52575;DHT22;38468;48.114;-1.684;2024-02-04T02:32:46;11.40;78.30
52575;DHT22;38468;48.114;-1.684;2024-02-04T02:34:48;11.40;78.30
52575;DHT22;38468;48.114;-1.684;2024-02-04T02:37:03;11.50;78.40
52575;DHT22;38468;48.114;-1.684;2024-02-04T02:39:17;11.50;78.30
52575;DHT22;38468;48.114;-1.684;2024-02-04T02:41:20;11.40;78.20
52575;DHT22;38468;48.114;-1.684;2024-02-04T02:43:22;11.40;78.20
52575;DHT22;38468;48.114;-1.684;2024-02-04T02:45:24;11.40;78.20
52575;DHT22;38468;48.114;-1.684;2024-02-04T02:47:26;11.40;78.20
52575;DHT22;38468;48.114;-1.684;2024-02-04T02:49:28;11.40;78.30
52575;DHT22;38468;48.114;-1.684;2024-02-04T02:51:29;11.40;78.30
52575;DHT22;38468;48.114;-1.684;2024-02-04T02:53:29;11.40;78.30
52575;DHT22;38468;48.114;-1.684;2024-02-04T02:55:30;11.40;78.30
52575;DHT22;38468;48.114;-1.684;2024-02-04T02:57:31;11.50;78.30
52575;DHT22;38468;48.114;-1.684;2024-02-04T02:59:32;11.40;78.30
52575;DHT22;38468;48.114;-1.684;2024-02-04T03:01:32;11.40;78.20
52575;DHT22;38468;48.114;-1.684;2024-02-04T03:03:33;11.40;78.20
52575;DHT22;38468;48.114;-1.684;2024-02-04T03:05:34;11.40;78.20
52575;DHT22;38468;48.114;-1.684;2024-02-04T03:07:35;11.40;78.30
52575;DHT22;38468;48.114;-1.684;2024-02-04T03:09:36;11.40;78.30
52575;DHT22;38468;48.114;-1.684;2024-02-04T03:11:36;11.40;78.30
52575;DHT22;38468;48.114;-1.684;2024-02-04T03:13:39;11.40;78.30
52575;DHT22;38468;48.114;-1.684;2024-02-04T03:15:40;11.30;78.30
52575;DHT22;38468;48.114;-1.684;2024-02-04T03:17:42;11.30;78.30
52575;DHT22;38468;48.114;-1.684;2024-02-04T03:19:43;11.40;78.30
52575;DHT22;38468;48.114;-1.684;2024-02-04T03:21:44;11.40;78.30
52575;DHT22;38468;48.114;-1.684;2024-02-04T03:23:45;11.40;78.30
52575;DHT22;38468;48.114;-1.684;2024-02-04T03:25:45;11.40;78.30
52575;DHT22;38468;48.114;-1.684;2024-02-04T03:27:46;11.30;78.30
52575;DHT22;38468;48.114;-1.684;2024-02-04T03:29:47;11.40;78.30
52575;DHT22;38468;48.114;-1.684;2024-02-04T03:31:48;11.40;78.30
52575;DHT22;38468;48.114;-1.684;2024-02-04T03:33:50;11.40;78.30
52575;DHT22;38468;48.114;-1.684;2024-02-04T03:35:51;11.40;78.20
52575;DHT22;38468;48.114;-1.684;2024-02-04T03:37:51;11.40;78.30
52575;DHT22;38468;48.114;-1.684;2024-02-04T03:39:52;11.30;78.30
52575;DHT22;38468;48.114;-1.684;2024-02-04T03:41:53;11.40;78.30
52575;DHT22;38468;48.114;-1.684;2024-02-04T03:43:53;11.30;78.30
52575;DHT22;38468;48.114;-1.684;2024-02-04T03:45:55;11.30;78.30
52575;DHT22;38468;48.114;-1.684;2024-02-04T03:47:56;11.40;78.30
52575;DHT22;38468;48.114;-1.684;2024-02-04T03:49:56;11.40;78.30
52575;DHT22;38468;48.114;-1.684;2024-02-04T03:51:57;11.40;78.30
52575;DHT22;38468;48.114;-1.684;2024-02-04T03:53:58;11.40;78.30
52575;DHT22;38468;48.114;-1.684;2024-02-04T03:55:58;11.40;78.30
52575;DHT22;38468;48.114;-1.684;2024-02-04T03:57:59;11.40;78.20
52575;DHT22;38468;48.114;-1.684;2024-02-04T03:59:59;11.40;78.20
52575;DHT22;38468;48.114;-1.684;2024-02-04T04:02:00;11.40;78.20
52575;DHT22;38468;48.114;-1.684;2024-02-04T04:04:01;11.30;78.20
52575;DHT22;38468;48.114;-1.684;2024-02-04T04:06:01;11.30;78.20
52575;DHT22;38468;48.114;-1.684;2024-02-04T04:08:02;11.40;78.10
52575;DHT22;38468;48.114;-1.684;2024-02-04T04:10:04;11.30;78.10
52575;DHT22;38468;48.114;-1.684;2024-02-04T04:12:05;11.30;78.10
52575;DHT22;38468;48.114;-1.684;2024-02-04T04:14:06;11.30;78.20
52575;DHT22;38468;48.114;-1.684;2024-02-04T04:16:07;11.40;78.20
52575;DHT22;38468;48.114;-1.684;2024-02-04T04:18:07;11.40;78.20
52575;DHT22;38468;48.114;-1.684;2024-02-04T04:20:08;11.30;78.10
52575;DHT22;38468;48.114;-1.684;2024-02-04T04:22:09;11.30;78.10
52575;DHT22;38468;48.114;-1.684;2024-02-04T04:24:10;11.30;78.10
52575;DHT22;38468;48.114;-1.684;2024-02-04T04:26:10;11.30;78.00
52575;DHT22;38468;48.114;-1.684;2024-02-04T04:28:11;11.30;78.10
52575;DHT22;38468;48.114;-1.684;2024-02-04T04:30:12;11.30;78.10
52575;DHT22;38468;48.114;-1.684;2024-02-04T04:32:12;11.30;78.10
52575;DHT22;38468;48.114;-1.684;2024-02-04T04:34:13;11.40;78.10
52575;DHT22;38468;48.114;-1.684;2024-02-04T04:36:14;11.40;78.10
52575;DHT22;38468;48.114;-1.684;2024-02-04T04:38:15;11.40;78.10
52575;DHT22;38468;48.114;-1.684;2024-02-04T04:40:15;11.40;78.10
52575;DHT22;38468;48.114;-1.684;2024-02-04T04:42:16;11.40;78.00
52575;DHT22;38468;48.114;-1.684;2024-02-04T04:44:16;11.40;78.00
52575;DHT22;38468;48.114;-1.684;2024-02-04T04:46:17;11.40;78.00
52575;DHT22;38468;48.114;-1.684;2024-02-04T04:48:18;11.40;78.00
52575;DHT22;38468;48.114;-1.684;2024-02-04T04:50:18;11.40;77.90
52575;DHT22;38468;48.114;-1.684;2024-02-04T04:52:19;11.40;77.90
52575;DHT22;38468;48.114;-1.684;2024-02-04T04:54:20;11.50;77.90
52575;DHT22;38468;48.114;-1.684;2024-02-04T04:56:20;11.40;77.90
52575;DHT22;38468;48.114;-1.684;2024-02-04T04:58:21;11.40;77.80
52575;DHT22;38468;48.114;-1.684;2024-02-04T05:00:22;11.40;77.80
52575;DHT22;38468;48.114;-1.684;2024-02-04T05:02:22;11.40;77.80
52575;DHT22;38468;48.114;-1.684;2024-02-04T05:04:23;11.40;77.60
52575;DHT22;38468;48.114;-1.684;2024-02-04T05:06:25;11.30;77.60
52575;DHT22;38468;48.114;-1.684;2024-02-04T05:08:26;11.40;77.60
52575;DHT22;38468;48.114;-1.684;2024-02-04T05:10:26;11.30;77.70
52575;DHT22;38468;48.114;-1.684;2024-02-04T05:12:27;11.30;77.70
52575;DHT22;38468;48.114;-1.684;2024-02-04T05:14:28;11.30;77.60
52575;DHT22;38468;48.114;-1.684;2024-02-04T05:16:28;11.40;77.60
52575;DHT22;38468;48.114;-1.684;2024-02-04T05:18:29;11.40;77.70
52575;DHT22;38468;48.114;-1.684;2024-02-04T05:20:30;11.40;77.60
52575;DHT22;38468;48.114;-1.684;2024-02-04T05:22:30;11.40;77.50
52575;DHT22;38468;48.114;-1.684;2024-02-04T05:24:31;11.30;77.60
52575;DHT22;38468;48.114;-1.684;2024-02-04T05:26:31;11.30;77.60
52575;DHT22;38468;48.114;-1.684;2024-02-04T05:28:32;11.40;77.60
52575;DHT22;38468;48.114;-1.684;2024-02-04T05:30:33;11.30;77.60
52575;DHT22;38468;48.114;-1.684;2024-02-04T05:32:33;11.40;77.70
52575;DHT22;38468;48.114;-1.684;2024-02-04T05:34:34;11.40;77.60
52575;DHT22;38468;48.114;-1.684;2024-02-04T05:36:35;11.40;77.60
52575;DHT22;38468;48.114;-1.684;2024-02-04T05:38:36;11.40;77.60
52575;DHT22;38468;48.114;-1.684;2024-02-04T05:40:36;11.40;77.60
52575;DHT22;38468;48.114;-1.684;2024-02-04T05:42:37;11.40;77.60
52575;DHT22;38468;48.114;-1.684;2024-02-04T05:44:37;11.40;77.60
52575;DHT22;38468;48.114;-1.684;2024-02-04T05:46:38;11.50;77.60
52575;DHT22;38468;48.114;-1.684;2024-02-04T05:48:39;11.40;77.60
52575;DHT22;38468;48.114;-1.684;2024-02-04T05:50:41;11.50;77.60
52575;DHT22;38468;48.114;-1.684;2024-02-04T05:52:42;11.40;77.60
52575;DHT22;38468;48.114;-1.684;2024-02-04T05:54:42;11.50;77.60
52575;DHT22;38468;48.114;-1.684;2024-02-04T05:56:43;11.50;77.50
52575;DHT22;38468;48.114;-1.684;2024-02-04T05:58:44;11.40;77.40
52575;DHT22;38468;48.114;-1.684;2024-02-04T06:00:45;11.40;77.40
52575;DHT22;38468;48.114;-1.684;2024-02-04T06:02:46;11.50;77.50
52575;DHT22;38468;48.114;-1.684;2024-02-04T06:04:47;11.40;77.40
52575;DHT22;38468;48.114;-1.684;2024-02-04T06:06:48;11.40;77.40
52575;DHT22;38468;48.114;-1.684;2024-02-04T06:08:49;11.40;77.40
52575;DHT22;38468;48.114;-1.684;2024-02-04T06:10:50;11.40;77.40
52575;DHT22;38468;48.114;-1.684;2024-02-04T06:12:50;11.40;77.40
52575;DHT22;38468;48.114;-1.684;2024-02-04T06:14:51;11.40;77.40
52575;DHT22;38468;48.114;-1.684;2024-02-04T06:16:52;11.40;77.30
52575;DHT22;38468;48.114;-1.684;2024-02-04T06:18:52;11.40;77.40
52575;DHT22;38468;48.114;-1.684;2024-02-04T06:20:55;11.40;77.40
52575;DHT22;38468;48.114;-1.684;2024-02-04T06:22:56;11.40;77.40
52575;DHT22;38468;48.114;-1.684;2024-02-04T06:24:58;11.50;77.40
52575;DHT22;38468;48.114;-1.684;2024-02-04T06:26:59;11.50;77.40
52575;DHT22;38468;48.114;-1.684;2024-02-04T06:28:59;11.50;77.50
52575;DHT22;38468;48.114;-1.684;2024-02-04T06:31:00;11.50;77.40
52575;DHT22;38468;48.114;-1.684;2024-02-04T06:33:00;11.50;77.40
52575;DHT22;38468;48.114;-1.684;2024-02-04T06:35:01;11.50;77.40
52575;DHT22;38468;48.114;-1.684;2024-02-04T06:37:03;11.50;77.30
52575;DHT22;38468;48.114;-1.684;2024-02-04T06:39:03;11.50;77.40
52575;DHT22;38468;48.114;-1.684;2024-02-04T06:41:04;11.50;77.40
52575;DHT22;38468;48.114;-1.684;2024-02-04T06:43:05;11.50;77.40
52575;DHT22;38468;48.114;-1.684;2024-02-04T06:45:05;11.50;77.40
52575;DHT22;38468;48.114;-1.684;2024-02-04T06:47:06;11.50;77.30
52575;DHT22;38468;48.114;-1.684;2024-02-04T06:49:07;11.50;77.30
52575;DHT22;38468;48.114;-1.684;2024-02-04T06:51:07;11.50;77.20
52575;DHT22;38468;48.114;-1.684;2024-02-04T06:53:08;11.50;77.30
52575;DHT22;38468;48.114;-1.684;2024-02-04T06:55:09;11.50;77.30
52575;DHT22;38468;48.114;-1.684;2024-02-04T06:57:10;11.40;77.30
52575;DHT22;38468;48.114;-1.684;2024-02-04T06:59:10;11.50;77.30
52575;DHT22;38468;48.114;-1.684;2024-02-04T07:01:11;11.50;77.30
52575;DHT22;38468;48.114;-1.684;2024-02-04T07:03:12;11.40;77.20
52575;DHT22;38468;48.114;-1.684;2024-02-04T07:05:13;11.40;77.20
52575;DHT22;38468;48.114;-1.684;2024-02-04T07:07:15;11.40;77.30
52575;DHT22;38468;48.114;-1.684;2024-02-04T07:09:16;11.40;77.30
52575;DHT22;38468;48.114;-1.684;2024-02-04T07:11:17;11.40;77.30
52575;DHT22;38468;48.114;-1.684;2024-02-04T07:13:18;11.40;77.30
52575;DHT22;38468;48.114;-1.684;2024-02-04T07:15:19;11.40;77.20
52575;DHT22;38468;48.114;-1.684;2024-02-04T07:17:20;11.40;77.20
52575;DHT22;38468;48.114;-1.684;2024-02-04T07:19:20;11.40;77.20
52575;DHT22;38468;48.114;-1.684;2024-02-04T07:21:21;11.40;77.20
52575;DHT22;38468;48.114;-1.684;2024-02-04T07:23:22;11.40;77.20
52575;DHT22;38468;48.114;-1.684;2024-02-04T07:25:22;11.40;77.20
52575;DHT22;38468;48.114;-1.684;2024-02-04T07:27:23;11.40;77.20
52575;DHT22;38468;48.114;-1.684;2024-02-04T07:29:24;11.40;77.20
52575;DHT22;38468;48.114;-1.684;2024-02-04T07:31:24;11.40;77.20
52575;DHT22;38468;48.114;-1.684;2024-02-04T07:33:25;11.40;77.20
52575;DHT22;38468;48.114;-1.684;2024-02-04T07:35:26;11.40;77.20
52575;DHT22;38468;48.114;-1.684;2024-02-04T07:37:26;11.40;77.20
52575;DHT22;38468;48.114;-1.684;2024-02-04T07:39:27;11.40;77.20
52575;DHT22;38468;48.114;-1.684;2024-02-04T07:41:28;11.40;77.20
52575;DHT22;38468;48.114;-1.684;2024-02-04T07:43:28;11.40;77.20
52575;DHT22;38468;48.114;-1.684;2024-02-04T07:45:29;11.40;77.20
52575;DHT22;38468;48.114;-1.684;2024-02-04T07:47:29;11.40;77.10
52575;DHT22;38468;48.114;-1.684;2024-02-04T07:49:30;11.40;77.10
52575;DHT22;38468;48.114;-1.684;2024-02-04T07:51:30;11.40;77.10
52575;DHT22;38468;48.114;-1.684;2024-02-04T07:53:32;11.30;77.00
52575;DHT22;38468;48.114;-1.684;2024-02-04T07:55:32;11.30;77.00
52575;DHT22;38468;48.114;-1.684;2024-02-04T07:57:33;11.40;77.10
52575;DHT22;38468;48.114;-1.684;2024-02-04T07:59:33;11.30;77.10
52575;DHT22;38468;48.114;-1.684;2024-02-04T08:01:34;11.30;76.80
52575;DHT22;38468;48.114;-1.684;2024-02-04T08:03:35;11.20;76.80
52575;DHT22;38468;48.114;-1.684;2024-02-04T08:05:36;11.20;76.80
52575;DHT22;38468;48.114;-1.684;2024-02-04T08:07:36;11.20;76.60
52575;DHT22;38468;48.114;-1.684;2024-02-04T08:09:37;11.20;76.80
52575;DHT22;38468;48.114;-1.684;2024-02-04T08:11:38;11.10;76.80
52575;DHT22;38468;48.114;-1.684;2024-02-04T08:13:38;11.10;76.80
52575;DHT22;38468;48.114;-1.684;2024-02-04T08:15:39;11.20;76.80
52575;DHT22;38468;48.114;-1.684;2024-02-04T08:17:40;11.00;76.50
52575;DHT22;38468;48.114;-1.684;2024-02-04T08:19:41;11.00;76.60
52575;DHT22;38468;48.114;-1.684;2024-02-04T08:21:42;11.00;76.60
52575;DHT22;38468;48.114;-1.684;2024-02-04T08:23:43;11.00;76.70
52575;DHT22;38468;48.114;-1.684;2024-02-04T08:25:44;11.00;76.70
52575;DHT22;38468;48.114;-1.684;2024-02-04T08:27:45;11.00;76.70
52575;DHT22;38468;48.114;-1.684;2024-02-04T08:29:46;11.00;76.70
52575;DHT22;38468;48.114;-1.684;2024-02-04T08:31:46;11.00;76.80
52575;DHT22;38468;48.114;-1.684;2024-02-04T08:33:47;11.00;76.90
52575;DHT22;38468;48.114;-1.684;2024-02-04T08:35:48;11.10;76.90
52575;DHT22;38468;48.114;-1.684;2024-02-04T08:37:49;11.10;77.00
52575;DHT22;38468;48.114;-1.684;2024-02-04T08:39:49;11.20;77.00
52575;DHT22;38468;48.114;-1.684;2024-02-04T08:41:50;11.20;77.00
52575;DHT22;38468;48.114;-1.684;2024-02-04T08:43:51;11.20;77.00
52575;DHT22;38468;48.114;-1.684;2024-02-04T08:45:51;11.20;76.80
52575;DHT22;38468;48.114;-1.684;2024-02-04T08:47:52;11.10;76.80
52575;DHT22;38468;48.114;-1.684;2024-02-04T08:49:52;11.10;76.70
52575;DHT22;38468;48.114;-1.684;2024-02-04T08:51:53;11.10;76.70
52575;DHT22;38468;48.114;-1.684;2024-02-04T08:53:54;11.10;76.70
52575;DHT22;38468;48.114;-1.684;2024-02-04T08:55:54;11.00;76.70
52575;DHT22;38468;48.114;-1.684;2024-02-04T08:57:55;11.00;76.70
52575;DHT22;38468;48.114;-1.684;2024-02-04T08:59:56;11.10;76.80
52575;DHT22;38468;48.114;-1.684;2024-02-04T09:01:57;11.10;76.90
52575;DHT22;38468;48.114;-1.684;2024-02-04T09:03:58;11.10;76.90
52575;DHT22;38468;48.114;-1.684;2024-02-04T09:05:59;11.20;77.00
52575;DHT22;38468;48.114;-1.684;2024-02-04T09:07:59;11.20;77.00
52575;DHT22;38468;48.114;-1.684;2024-02-04T09:10:00;11.20;77.00
52575;DHT22;38468;48.114;-1.684;2024-02-04T09:12:01;11.20;76.90
52575;DHT22;38468;48.114;-1.684;2024-02-04T09:14:02;11.20;76.90
52575;DHT22;38468;48.114;-1.684;2024-02-04T09:16:04;11.30;76.90
52575;DHT22;38468;48.114;-1.684;2024-02-04T09:18:05;11.30;76.90
52575;DHT22;38468;48.114;-1.684;2024-02-04T09:20:07;11.40;76.90
52575;DHT22;38468;48.114;-1.684;2024-02-04T09:22:08;11.30;76.90
52575;DHT22;38468;48.114;-1.684;2024-02-04T09:24:09;11.40;77.00
52575;DHT22;38468;48.114;-1.684;2024-02-04T09:26:10;11.40;77.00
52575;DHT22;38468;48.114;-1.684;2024-02-04T09:28:11;11.40;76.80
52575;DHT22;38468;48.114;-1.684;2024-02-04T09:30:11;11.40;76.80
52575;DHT22;38468;48.114;-1.684;2024-02-04T09:32:12;11.40;76.70
52575;DHT22;38468;48.114;-1.684;2024-02-04T09:34:13;11.40;76.80
52575;DHT22;38468;48.114;-1.684;2024-02-04T09:36:13;11.40;76.70
52575;DHT22;38468;48.114;-1.684;2024-02-04T09:38:15;11.40;76.70
52575;DHT22;38468;48.114;-1.684;2024-02-04T09:40:15;11.40;76.70
52575;DHT22;38468;48.114;-1.684;2024-02-04T09:42:20;11.40;76.70
52575;DHT22;38468;48.114;-1.684;2024-02-04T09:44:24;11.40;76.70
52575;DHT22;38468;48.114;-1.684;2024-02-04T09:46:25;11.40;76.70
52575;DHT22;38468;48.114;-1.684;2024-02-04T09:48:29;11.40;76.60
52575;DHT22;38468;48.114;-1.684;2024-02-04T09:50:30;11.40;76.70
52575;DHT22;38468;48.114;-1.684;2024-02-04T09:52:33;11.40;76.70
52575;DHT22;38468;48.114;-1.684;2024-02-04T09:54:45;11.40;76.60
52575;DHT22;38468;48.114;-1.684;2024-02-04T09:56:46;11.40;76.60
52575;DHT22;38468;48.114;-1.684;2024-02-04T09:58:48;11.40;76.50
52575;DHT22;38468;48.114;-1.684;2024-02-04T10:00:51;11.40;76.60
52575;DHT22;38468;48.114;-1.684;2024-02-04T10:02:53;11.40;76.50
52575;DHT22;38468;48.114;-1.684;2024-02-04T10:04:56;11.40;76.30
52575;DHT22;38468;48.114;-1.684;2024-02-04T10:06:56;11.40;76.20
52575;DHT22;38468;48.114;-1.684;2024-02-04T10:08:57;11.40;76.30
52575;DHT22;38468;48.114;-1.684;2024-02-04T10:10:58;11.40;76.10
52575;DHT22;38468;48.114;-1.684;2024-02-04T10:13:08;11.40;76.30
52575;DHT22;38468;48.114;-1.684;2024-02-04T10:15:09;11.40;76.30
52575;DHT22;38468;48.114;-1.684;2024-02-04T10:17:10;11.50;76.30
52575;DHT22;38468;48.114;-1.684;2024-02-04T10:19:14;11.50;76.30
52575;DHT22;38468;48.114;-1.684;2024-02-04T10:21:16;11.50;76.30
52575;DHT22;38468;48.114;-1.684;2024-02-04T10:23:17;11.50;76.30
52575;DHT22;38468;48.114;-1.684;2024-02-04T10:25:20;11.50;76.30
52575;DHT22;38468;48.114;-1.684;2024-02-04T10:27:21;11.50;76.30
52575;DHT22;38468;48.114;-1.684;2024-02-04T10:29:25;11.50;76.40
52575;DHT22;38468;48.114;-1.684;2024-02-04T10:31:29;11.50;76.20
52575;DHT22;38468;48.114;-1.684;2024-02-04T10:33:33;11.50;75.80
52575;DHT22;38468;48.114;-1.684;2024-02-04T10:35:34;11.50;75.90
52575;DHT22;38468;48.114;-1.684;2024-02-04T10:37:35;11.50;75.90
52575;DHT22;38468;48.114;-1.684;2024-02-04T10:39:35;11.50;76.00
52575;DHT22;38468;48.114;-1.684;2024-02-04T10:41:40;11.50;76.10
52575;DHT22;38468;48.114;-1.684;2024-02-04T10:43:44;11.60;76.20
52575;DHT22;38468;48.114;-1.684;2024-02-04T10:45:45;11.60;76.20
52575;DHT22;38468;48.114;-1.684;2024-02-04T10:47:55;11.60;76.10
52575;DHT22;38468;48.114;-1.684;2024-02-04T10:49:58;11.70;76.10
52575;DHT22;38468;48.114;-1.684;2024-02-04T10:52:00;11.70;76.20
52575;DHT22;38468;48.114;-1.684;2024-02-04T10:54:02;11.70;76.20
52575;DHT22;38468;48.114;-1.684;2024-02-04T10:56:03;11.80;76.20
52575;DHT22;38468;48.114;-1.684;2024-02-04T10:58:06;11.70;75.90
52575;DHT22;38468;48.114;-1.684;2024-02-04T11:00:08;11.70;75.80
52575;DHT22;38468;48.114;-1.684;2024-02-04T11:02:12;11.70;75.70
52575;DHT22;38468;48.114;-1.684;2024-02-04T11:04:13;11.70;75.70
52575;DHT22;38468;48.114;-1.684;2024-02-04T11:06:14;11.70;75.80
52575;DHT22;38468;48.114;-1.684;2024-02-04T11:08:15;11.70;75.80
52575;DHT22;38468;48.114;-1.684;2024-02-04T11:10:16;11.70;75.90
52575;DHT22;38468;48.114;-1.684;2024-02-04T11:12:21;11.80;75.90
52575;DHT22;38468;48.114;-1.684;2024-02-04T11:14:22;11.70;75.40
52575;DHT22;38468;48.114;-1.684;2024-02-04T11:19:03;11.70;75.30
52575;DHT22;38468;48.114;-1.684;2024-02-04T11:25:43;11.70;75.30
52575;DHT22;38468;48.114;-1.684;2024-02-04T11:27:45;11.70;75.40
52575;DHT22;38468;48.114;-1.684;2024-02-04T11:29:46;11.70;75.10
52575;DHT22;38468;48.114;-1.684;2024-02-04T11:31:47;11.70;74.90
52575;DHT22;38468;48.114;-1.684;2024-02-04T11:33:50;11.70;74.60
52575;DHT22;38468;48.114;-1.684;2024-02-04T11:38:04;11.70;74.90
52575;DHT22;38468;48.114;-1.684;2024-02-04T11:40:05;11.70;74.70
52575;DHT22;38468;48.114;-1.684;2024-02-04T11:42:14;11.70;74.60
52575;DHT22;38468;48.114;-1.684;2024-02-04T11:44:26;11.70;74.60
52575;DHT22;38468;48.114;-1.684;2024-02-04T11:46:32;11.70;74.60
52575;DHT22;38468;48.114;-1.684;2024-02-04T11:48:34;11.70;74.90
52575;DHT22;38468;48.114;-1.684;2024-02-04T11:50:37;11.70;75.00
52575;DHT22;38468;48.114;-1.684;2024-02-04T11:52:39;11.80;75.10
52575;DHT22;38468;48.114;-1.684;2024-02-04T11:54:40;11.80;75.10
52575;DHT22;38468;48.114;-1.684;2024-02-04T11:56:41;11.80;74.60
52575;DHT22;38468;48.114;-1.684;2024-02-04T11:58:41;11.80;74.40
52575;DHT22;38468;48.114;-1.684;2024-02-04T12:00:43;11.80;74.60
52575;DHT22;38468;48.114;-1.684;2024-02-04T12:02:44;11.80;74.10
52575;DHT22;38468;48.114;-1.684;2024-02-04T12:04:45;11.70;73.90
52575;DHT22;38468;48.114;-1.684;2024-02-04T12:06:47;11.70;73.90
52575;DHT22;38468;48.114;-1.684;2024-02-04T12:08:48;11.70;74.30
52575;DHT22;38468;48.114;-1.684;2024-02-04T12:10:49;11.80;74.50
52575;DHT22;38468;48.114;-1.684;2024-02-04T12:12:50;11.80;74.40
52575;DHT22;38468;48.114;-1.684;2024-02-04T12:14:52;11.90;74.60
52575;DHT22;38468;48.114;-1.684;2024-02-04T12:16:53;11.90;74.60
52575;DHT22;38468;48.114;-1.684;2024-02-04T12:18:53;11.90;74.70
52575;DHT22;38468;48.114;-1.684;2024-02-04T12:20:54;12.00;74.40
52575;DHT22;38468;48.114;-1.684;2024-02-04T12:22:55;11.90;74.00
52575;DHT22;38468;48.114;-1.684;2024-02-04T12:24:56;11.90;74.10
52575;DHT22;38468;48.114;-1.684;2024-02-04T12:26:56;11.90;74.20
52575;DHT22;38468;48.114;-1.684;2024-02-04T12:28:58;12.00;74.40
52575;DHT22;38468;48.114;-1.684;2024-02-04T12:31:00;12.00;74.40
52575;DHT22;38468;48.114;-1.684;2024-02-04T12:33:02;12.00;74.30
52575;DHT22;38468;48.114;-1.684;2024-02-04T12:35:06;12.00;73.80
52575;DHT22;38468;48.114;-1.684;2024-02-04T12:37:07;11.90;73.50
52575;DHT22;38468;48.114;-1.684;2024-02-04T12:39:10;11.90;73.60
52575;DHT22;38468;48.114;-1.684;2024-02-04T12:41:13;12.00;73.90
52575;DHT22;38468;48.114;-1.684;2024-02-04T12:43:13;12.00;73.90